createdAt,value
2022-08-29T00:00:17.700Z,14.93
2022-08-29T00:01:14.397Z,15.01
2022-08-29T00:02:14.404Z,14.87
2022-08-29T00:03:15.628Z,14.95
2022-08-29T00:04:14.253Z,14.86
2022-08-29T00:05:14.212Z,14.86
2022-08-29T00:06:14.424Z,14.90
2022-08-29T00:07:14.025Z,14.85
2022-08-29T00:08:14.043Z,14.75
2022-08-29T00:09:13.952Z,14.75
2022-08-29T00:10:13.839Z,14.91
2022-08-29T00:11:13.829Z,14.82
2022-08-29T00:12:13.754Z,14.75
2022-08-29T00:13:13.655Z,14.87
2022-08-29T00:14:23.191Z,14.85
2022-08-29T00:15:13.576Z,14.80
2022-08-29T00:16:13.856Z,14.90
2022-08-29T00:17:13.453Z,14.85
2022-08-29T00:18:13.547Z,14.83
2022-08-29T00:19:13.586Z,14.86
2022-08-29T00:20:13.576Z,14.87
2022-08-29T00:21:13.287Z,14.94
2022-08-29T00:22:13.525Z,14.87
2022-08-29T00:23:13.326Z,14.78
2022-08-29T00:24:12.920Z,14.83
2022-08-29T00:25:12.907Z,14.83
2022-08-29T00:26:13.058Z,14.79
2022-08-29T00:27:12.821Z,14.82
2022-08-29T00:28:13.029Z,14.85
2022-08-29T00:29:13.244Z,14.82
2022-08-29T00:30:12.625Z,14.74
2022-08-29T00:31:12.606Z,14.72
2022-08-29T00:32:12.524Z,14.79
2022-08-29T00:33:12.445Z,14.74
2022-08-29T00:34:12.297Z,14.67
2022-08-29T00:35:12.237Z,14.69
2022-08-29T00:36:12.173Z,14.74
2022-08-29T00:37:12.223Z,14.83
2022-08-29T00:38:12.053Z,14.80
2022-08-29T00:39:11.983Z,14.71
2022-08-29T00:40:11.946Z,14.66
2022-08-29T00:41:11.876Z,14.66
2022-08-29T00:42:11.798Z,14.60
2022-08-29T00:43:11.753Z,14.59
2022-08-29T00:44:11.675Z,14.61
2022-08-29T00:45:11.614Z,14.78
2022-08-29T00:46:11.672Z,14.72
2022-08-29T00:47:11.507Z,14.87
2022-08-29T00:48:11.435Z,14.79
2022-08-29T00:49:11.364Z,14.74
2022-08-29T00:50:11.306Z,14.75
2022-08-29T00:51:11.241Z,14.75
2022-08-29T00:52:11.181Z,14.78
2022-08-29T00:53:11.117Z,14.67
2022-08-29T00:54:11.056Z,14.72
2022-08-29T00:55:10.993Z,14.67
2022-08-29T00:56:10.932Z,14.60
2022-08-29T00:57:10.872Z,14.67
2022-08-29T00:58:12.081Z,14.71
2022-08-29T00:59:10.750Z,14.66
2022-08-29T01:00:10.685Z,14.63
2022-08-29T01:01:10.719Z,14.56
2022-08-29T01:02:10.598Z,14.54
2022-08-29T01:03:10.500Z,14.52
2022-08-29T01:04:15.659Z,14.54
2022-08-29T01:05:10.376Z,14.49
2022-08-29T01:06:10.315Z,14.53
2022-08-29T01:07:10.255Z,14.56
2022-08-29T01:08:10.248Z,14.54
2022-08-29T01:09:10.130Z,14.54
2022-08-29T01:10:13.453Z,14.48
2022-08-29T01:11:10.011Z,14.44
2022-08-29T01:12:09.950Z,14.57
2022-08-29T01:13:09.886Z,14.46
2022-08-29T01:14:09.820Z,14.36
2022-08-29T01:15:09.760Z,14.35
2022-08-29T01:16:09.751Z,14.42
2022-08-29T01:17:09.638Z,14.49
2022-08-29T01:18:09.577Z,14.46
2022-08-29T01:19:09.510Z,14.52
2022-08-29T01:20:09.447Z,14.49
2022-08-29T01:21:09.386Z,14.53
2022-08-29T01:22:09.325Z,14.49
2022-08-29T01:23:09.265Z,14.46
2022-08-29T01:24:10.427Z,14.54
2022-08-29T01:25:09.138Z,14.59
2022-08-29T01:26:09.078Z,14.63
2022-08-29T01:27:09.017Z,14.60
2022-08-29T01:28:08.953Z,14.48
2022-08-29T01:29:08.892Z,14.52
2022-08-29T01:30:08.828Z,14.61
2022-08-29T01:31:08.805Z,14.45
2022-08-29T01:32:08.728Z,14.41
2022-08-29T01:33:08.652Z,14.48
2022-08-29T01:34:08.581Z,14.38
2022-08-29T01:35:08.530Z,14.45
2022-08-29T01:36:08.458Z,14.39
2022-08-29T01:37:08.399Z,14.42
2022-08-29T01:38:08.384Z,14.54
2022-08-29T01:39:08.298Z,14.53
2022-08-29T01:40:08.286Z,14.54
2022-08-29T01:41:08.160Z,14.53
2022-08-29T01:42:08.099Z,14.59
2022-08-29T01:43:08.030Z,14.45
2022-08-29T01:44:07.965Z,14.52
2022-08-29T01:45:09.897Z,14.48
2022-08-29T01:46:07.878Z,14.36
2022-08-29T01:47:07.781Z,14.35
2022-08-29T01:48:07.717Z,14.42
2022-08-29T01:49:07.669Z,14.42
2022-08-29T01:50:07.624Z,14.36
2022-08-29T01:51:07.528Z,14.27
2022-08-29T01:52:07.471Z,14.27
2022-08-29T01:53:07.404Z,14.17
2022-08-29T01:54:07.345Z,14.11
2022-08-29T01:55:07.282Z,14.12
2022-08-29T01:56:07.223Z,14.21
2022-08-29T01:57:10.922Z,14.17
2022-08-29T01:58:07.124Z,14.20
2022-08-29T01:59:07.032Z,14.20
2022-08-29T02:00:06.970Z,14.21
2022-08-29T02:01:07.012Z,14.16
2022-08-29T02:02:06.887Z,14.17
2022-08-29T02:03:06.788Z,14.26
2022-08-29T02:04:06.727Z,14.21
2022-08-29T02:05:06.682Z,14.24
2022-08-29T02:06:06.599Z,14.21
2022-08-29T02:07:10.635Z,14.26
2022-08-29T02:08:06.473Z,14.20
2022-08-29T02:09:06.416Z,14.31
2022-08-29T02:10:06.357Z,14.31
2022-08-29T02:11:06.297Z,14.35
2022-08-29T02:12:06.231Z,14.29
2022-08-29T02:13:06.167Z,14.35
2022-08-29T02:14:06.100Z,14.24
2022-08-29T02:15:06.043Z,14.30
2022-08-29T02:16:05.991Z,14.36
2022-08-29T02:17:05.920Z,14.20
2022-08-29T02:18:05.872Z,14.24
2022-08-29T02:19:05.792Z,14.12
2022-08-29T02:20:05.732Z,14.26
2022-08-29T02:21:05.671Z,14.26
2022-08-29T02:22:05.605Z,14.24
2022-08-29T02:23:17.277Z,14.29
2022-08-29T02:24:21.621Z,14.21
2022-08-29T02:25:05.420Z,14.23
2022-08-29T02:26:05.357Z,14.16
2022-08-29T02:27:05.299Z,14.24
2022-08-29T02:28:05.237Z,14.11
2022-08-29T02:29:05.179Z,14.19
2022-08-29T02:30:05.112Z,14.13
2022-08-29T02:31:05.076Z,14.16
2022-08-29T02:32:04.990Z,14.16
2022-08-29T02:33:05.017Z,14.13
2022-08-29T02:34:04.890Z,14.17
2022-08-29T02:35:04.856Z,14.24
2022-08-29T02:36:04.742Z,14.27
2022-08-29T02:37:04.691Z,14.21
2022-08-29T02:38:04.611Z,14.26
2022-08-29T02:39:04.554Z,14.23
2022-08-29T02:40:04.531Z,14.23
2022-08-29T02:41:04.429Z,14.13
2022-08-29T02:42:04.365Z,14.26
2022-08-29T02:43:04.305Z,14.26
2022-08-29T02:44:04.243Z,14.26
2022-08-29T02:45:04.179Z,14.24
2022-08-29T02:46:04.118Z,14.26
2022-08-29T02:47:04.111Z,14.26
2022-08-29T02:48:03.996Z,14.20
2022-08-29T02:49:03.977Z,14.21
2022-08-29T02:50:03.878Z,14.23
2022-08-29T02:51:03.811Z,14.21
2022-08-29T02:52:03.754Z,14.16
2022-08-29T02:53:03.684Z,14.16
2022-08-29T02:54:03.624Z,14.19
2022-08-29T02:55:03.558Z,14.16
2022-08-29T02:56:03.494Z,14.04
2022-08-29T02:57:03.434Z,14.05
2022-08-29T02:58:03.381Z,14.21
2022-08-29T02:59:03.317Z,14.08
2022-08-29T03:00:03.244Z,14.16
2022-08-29T03:01:03.281Z,14.13
2022-08-29T03:02:03.129Z,14.11
2022-08-29T03:03:03.060Z,14.13
2022-08-29T03:04:02.998Z,13.99
2022-08-29T03:05:02.934Z,14.05
2022-08-29T03:06:02.873Z,14.16
2022-08-29T03:07:02.811Z,14.01
2022-08-29T03:08:02.751Z,14.04
2022-08-29T03:09:02.692Z,13.99
2022-08-29T03:10:02.626Z,14.12
2022-08-29T03:11:02.566Z,14.12
2022-08-29T03:12:02.499Z,14.09
2022-08-29T03:13:02.438Z,14.01
2022-08-29T03:14:02.375Z,14.02
2022-08-29T03:15:02.317Z,14.01
2022-08-29T03:16:02.396Z,14.01
2022-08-29T03:17:02.190Z,14.04
2022-08-29T03:18:02.129Z,13.94
2022-08-29T03:19:02.072Z,13.93
2022-08-29T03:20:02.004Z,14.01
2022-08-29T03:21:01.944Z,13.98
2022-08-29T03:22:01.881Z,13.96
2022-08-29T03:23:01.818Z,14.01
2022-08-29T03:24:01.771Z,13.90
2022-08-29T03:25:01.692Z,13.99
2022-08-29T03:26:01.628Z,13.99
2022-08-29T03:27:01.575Z,14.06
2022-08-29T03:28:01.507Z,13.98
2022-08-29T03:29:01.442Z,14.02
2022-08-29T03:30:01.389Z,14.04
2022-08-29T03:31:01.375Z,13.96
2022-08-29T03:32:01.254Z,13.91
2022-08-29T03:33:01.196Z,13.99
2022-08-29T03:34:01.130Z,13.93
2022-08-29T03:35:01.069Z,13.83
2022-08-29T03:36:01.007Z,13.87
2022-08-29T03:37:00.945Z,13.86
2022-08-29T03:38:00.879Z,13.88
2022-08-29T03:39:00.822Z,13.86
2022-08-29T03:40:00.791Z,13.80
2022-08-29T03:41:00.700Z,13.83
2022-08-29T03:42:00.630Z,13.86
2022-08-29T03:43:00.570Z,13.87
2022-08-29T03:44:00.509Z,13.87
2022-08-29T03:45:00.446Z,13.87
2022-08-29T03:46:00.382Z,13.88
2022-08-29T03:47:00.400Z,13.83
2022-08-29T03:48:00.259Z,13.86
2022-08-29T03:49:00.197Z,13.87
2022-08-29T03:50:00.178Z,13.86
2022-08-29T03:51:00.076Z,13.90
2022-08-29T03:52:00.007Z,13.98
2022-08-29T03:52:59.950Z,13.94
2022-08-29T03:53:59.884Z,13.91
2022-08-29T03:54:59.822Z,13.91
2022-08-29T03:55:59.761Z,13.86
2022-08-29T03:56:59.708Z,13.83
2022-08-29T03:57:59.648Z,13.90
2022-08-29T03:58:59.579Z,13.81
2022-08-29T03:59:59.510Z,13.84
2022-08-29T04:00:59.447Z,13.86
2022-08-29T04:01:59.450Z,13.83
2022-08-29T04:02:59.395Z,13.80
2022-08-29T04:03:59.287Z,13.86
2022-08-29T04:04:59.247Z,13.84
2022-08-29T04:05:59.147Z,13.76
2022-08-29T04:06:59.076Z,13.76
2022-08-29T04:07:59.013Z,13.91
2022-08-29T04:08:58.956Z,13.81
2022-08-29T04:09:58.886Z,13.83
2022-08-29T04:10:58.833Z,13.87
2022-08-29T04:11:58.761Z,13.88
2022-08-29T04:12:58.712Z,13.84
2022-08-29T04:13:58.646Z,13.79
2022-08-29T04:14:58.584Z,13.76
2022-08-29T04:15:58.571Z,13.80
2022-08-29T04:16:58.465Z,13.84
2022-08-29T04:17:58.560Z,13.84
2022-08-29T04:18:58.325Z,13.93
2022-08-29T04:19:58.268Z,13.84
2022-08-29T04:20:58.198Z,13.84
2022-08-29T04:21:58.137Z,13.90
2022-08-29T04:22:58.107Z,13.90
2022-08-29T04:23:58.015Z,13.93
2022-08-29T04:24:57.949Z,13.99
2022-08-29T04:26:12.698Z,14.02
2022-08-29T04:26:57.826Z,14.12
2022-08-29T04:27:57.766Z,13.98
2022-08-29T04:28:57.703Z,14.11
2022-08-29T04:29:57.643Z,14.17
2022-08-29T04:30:57.642Z,14.20
2022-08-29T04:31:57.512Z,14.27
2022-08-29T04:32:57.451Z,14.34
2022-08-29T04:33:57.386Z,14.36
2022-08-29T04:34:57.337Z,14.41
2022-08-29T04:35:57.273Z,14.36
2022-08-29T04:36:57.203Z,14.42
2022-08-29T04:37:57.138Z,14.48
2022-08-29T04:38:57.077Z,14.52
2022-08-29T04:39:57.045Z,14.52
2022-08-29T04:40:56.953Z,14.49
2022-08-29T04:41:56.899Z,14.59
2022-08-29T04:42:56.831Z,14.53
2022-08-29T04:43:56.773Z,14.63
2022-08-29T04:44:56.704Z,14.59
2022-08-29T04:45:56.747Z,14.60
2022-08-29T04:46:56.599Z,14.63
2022-08-29T04:47:57.644Z,14.64
2022-08-29T04:48:59.525Z,14.63
2022-08-29T04:49:56.394Z,14.75
2022-08-29T04:50:56.360Z,14.71
2022-08-29T04:51:56.274Z,14.79
2022-08-29T04:52:56.214Z,14.80
2022-08-29T04:53:56.143Z,14.82
2022-08-29T04:54:56.088Z,14.86
2022-08-29T04:55:56.033Z,14.86
2022-08-29T04:56:57.738Z,14.91
2022-08-29T04:57:55.891Z,14.98
2022-08-29T04:58:55.833Z,15.01
2022-08-29T04:59:55.768Z,14.97
2022-08-29T05:00:55.708Z,15.05
2022-08-29T05:01:55.732Z,15.03
2022-08-29T05:02:55.631Z,15.07
2022-08-29T05:03:55.526Z,15.04
2022-08-29T05:04:55.460Z,15.07
2022-08-29T05:05:55.394Z,15.12
2022-08-29T05:06:55.335Z,15.07
2022-08-29T05:07:55.276Z,15.05
2022-08-29T05:08:59.624Z,15.00
2022-08-29T05:09:55.155Z,15.05
2022-08-29T05:10:55.106Z,15.00
2022-08-29T05:11:55.023Z,15.03
2022-08-29T05:12:54.959Z,15.04
2022-08-29T05:13:54.898Z,14.95
2022-08-29T05:14:54.838Z,15.04
2022-08-29T05:15:54.860Z,15.09
2022-08-29T05:16:54.712Z,15.04
2022-08-29T05:17:54.660Z,15.11
2022-08-29T05:18:54.589Z,15.12
2022-08-29T05:19:54.525Z,15.20
2022-08-29T05:20:54.465Z,15.22
2022-08-29T05:21:54.401Z,15.28
2022-08-29T05:22:54.341Z,15.37
2022-08-29T05:23:54.278Z,15.38
2022-08-29T05:24:54.214Z,15.38
2022-08-29T05:25:54.155Z,15.44
2022-08-29T05:26:54.101Z,15.49
2022-08-29T05:27:54.032Z,15.46
2022-08-29T05:28:53.971Z,15.52
2022-08-29T05:29:53.906Z,15.44
2022-08-29T05:30:53.922Z,15.59
2022-08-29T05:31:53.788Z,15.55
2022-08-29T05:32:53.752Z,15.58
2022-08-29T05:33:53.736Z,15.55
2022-08-29T05:34:53.597Z,15.56
2022-08-29T05:35:53.538Z,15.66
2022-08-29T05:36:53.488Z,15.77
2022-08-29T05:37:53.413Z,15.77
2022-08-29T05:38:53.352Z,15.92
2022-08-29T05:39:53.294Z,15.91
2022-08-29T05:40:53.234Z,15.96
2022-08-29T05:41:53.169Z,15.99
2022-08-29T05:42:53.102Z,16.14
2022-08-29T05:43:53.065Z,16.18
2022-08-29T05:44:52.990Z,16.25
2022-08-29T05:45:52.974Z,16.41
2022-08-29T05:46:52.858Z,16.51
2022-08-29T05:47:52.795Z,16.55
2022-08-29T05:48:52.733Z,16.62
2022-08-29T05:49:52.671Z,16.78
2022-08-29T05:50:52.611Z,16.77
2022-08-29T05:51:52.547Z,16.82
2022-08-29T05:52:52.512Z,16.78
2022-08-29T05:53:52.433Z,16.80
2022-08-29T05:54:52.363Z,16.87
2022-08-29T05:55:52.304Z,16.72
2022-08-29T05:56:52.242Z,16.78
2022-08-29T05:57:52.179Z,16.62
2022-08-29T05:58:52.145Z,16.52
2022-08-29T05:59:52.055Z,16.62
2022-08-29T06:00:51.993Z,16.66
2022-08-29T06:01:51.932Z,16.63
2022-08-29T06:02:51.938Z,16.62
2022-08-29T06:03:52.030Z,16.62
2022-08-29T06:04:51.748Z,16.65
2022-08-29T06:05:51.689Z,16.59
2022-08-29T06:06:51.625Z,16.70
2022-08-29T06:07:51.565Z,16.73
2022-08-29T06:08:51.524Z,16.73
2022-08-29T06:09:51.445Z,16.77
2022-08-29T06:10:51.380Z,16.65
2022-08-29T06:11:51.363Z,16.78
2022-08-29T06:12:51.258Z,16.75
2022-08-29T06:13:51.205Z,16.77
2022-08-29T06:14:51.134Z,16.70
2022-08-29T06:15:51.117Z,16.75
2022-08-29T06:16:51.017Z,16.65
2022-08-29T06:17:50.959Z,16.65
2022-08-29T06:18:50.911Z,16.54
2022-08-29T06:19:50.837Z,16.59
2022-08-29T06:20:50.767Z,16.62
2022-08-29T06:21:50.728Z,16.65
2022-08-29T06:22:50.644Z,16.59
2022-08-29T06:23:50.585Z,16.57
2022-08-29T06:24:50.523Z,16.63
2022-08-29T06:25:50.467Z,16.67
2022-08-29T06:26:50.427Z,16.72
2022-08-29T06:27:50.341Z,16.72
2022-08-29T06:28:50.281Z,16.67
2022-08-29T06:29:50.217Z,16.82
2022-08-29T06:30:50.193Z,16.87
2022-08-29T06:31:50.096Z,16.91
2022-08-29T06:32:50.033Z,17.00
2022-08-29T06:33:49.975Z,17.05
2022-08-29T06:34:49.911Z,17.05
2022-08-29T06:35:49.852Z,17.10
2022-08-29T06:36:49.803Z,17.10
2022-08-29T06:37:49.730Z,17.15
2022-08-29T06:38:49.682Z,17.38
2022-08-29T06:39:49.606Z,17.53
2022-08-29T06:40:49.542Z,17.49
2022-08-29T06:41:49.484Z,17.62
2022-08-29T06:42:49.422Z,17.79
2022-08-29T06:43:49.380Z,17.76
2022-08-29T06:44:49.298Z,17.89
2022-08-29T06:45:49.292Z,17.98
2022-08-29T06:46:49.176Z,17.83
2022-08-29T06:47:49.134Z,17.81
2022-08-29T06:48:49.054Z,17.70
2022-08-29T06:49:49.016Z,17.87
2022-08-29T06:50:48.947Z,17.73
2022-08-29T06:51:48.879Z,17.84
2022-08-29T06:52:48.812Z,17.70
2022-08-29T06:53:48.771Z,17.70
2022-08-29T06:54:48.696Z,17.74
2022-08-29T06:55:48.661Z,17.68
2022-08-29T06:56:48.570Z,17.77
2022-08-29T06:57:48.517Z,17.77
2022-08-29T06:58:48.456Z,17.83
2022-08-29T06:59:48.388Z,17.71
2022-08-29T07:00:49.770Z,17.77
2022-08-29T07:01:48.316Z,17.76
2022-08-29T07:02:52.443Z,17.70
2022-08-29T07:03:48.172Z,17.74
2022-08-29T07:04:48.096Z,17.79
2022-08-29T07:05:48.024Z,17.77
2022-08-29T07:06:47.964Z,17.74
2022-08-29T07:07:47.905Z,17.74
2022-08-29T07:08:55.676Z,17.87
2022-08-29T07:09:47.781Z,17.77
2022-08-29T07:10:47.721Z,17.86
2022-08-29T07:11:47.661Z,17.83
2022-08-29T07:12:47.650Z,17.81
2022-08-29T07:13:47.558Z,17.79
2022-08-29T07:14:47.474Z,17.84
2022-08-29T07:15:47.490Z,17.92
2022-08-29T07:16:47.353Z,17.99
2022-08-29T07:17:47.297Z,17.92
2022-08-29T07:18:47.242Z,18.02
2022-08-29T07:19:47.173Z,17.99
2022-08-29T07:20:47.109Z,18.01
2022-08-29T07:21:47.051Z,18.02
2022-08-29T07:22:46.990Z,17.98
2022-08-29T07:23:46.929Z,18.10
2022-08-29T07:24:46.868Z,17.95
2022-08-29T07:25:46.814Z,17.98
2022-08-29T07:26:46.746Z,18.01
2022-08-29T07:27:46.689Z,17.94
2022-08-29T07:28:47.311Z,17.89
2022-08-29T07:29:50.460Z,18.02
2022-08-29T07:30:46.666Z,18.01
2022-08-29T07:31:46.510Z,17.98
2022-08-29T07:32:46.456Z,17.96
2022-08-29T07:33:46.631Z,18.02
2022-08-29T07:34:46.262Z,18.01
2022-08-29T07:35:46.261Z,18.04
2022-08-29T07:36:46.237Z,18.09
2022-08-29T07:37:50.671Z,18.09
2022-08-29T07:38:46.145Z,18.09
2022-08-29T07:39:46.150Z,18.16
2022-08-29T07:40:45.978Z,18.21
2022-08-29T07:41:45.901Z,18.25
2022-08-29T07:42:45.879Z,18.25
2022-08-29T07:43:45.770Z,18.34
2022-08-29T07:44:45.708Z,18.31
2022-08-29T07:45:45.747Z,18.41
2022-08-29T07:46:45.589Z,18.39
2022-08-29T07:47:45.588Z,18.35
2022-08-29T07:48:45.494Z,18.49
2022-08-29T07:49:45.434Z,18.51
2022-08-29T07:50:45.347Z,18.51
2022-08-29T07:51:45.315Z,18.59
2022-08-29T07:52:45.214Z,18.72
2022-08-29T07:53:45.152Z,18.69
2022-08-29T07:54:45.128Z,18.83
2022-08-29T07:55:45.061Z,18.75
2022-08-29T07:56:44.976Z,18.89
2022-08-29T07:57:44.939Z,18.89
2022-08-29T07:58:44.863Z,18.90
2022-08-29T07:59:44.786Z,18.93
2022-08-29T08:00:44.724Z,19.07
2022-08-29T08:01:44.921Z,19.30
2022-08-29T08:02:44.750Z,19.42
2022-08-29T08:03:44.569Z,19.52
2022-08-29T08:04:44.476Z,19.67
2022-08-29T08:05:44.483Z,19.67
2022-08-29T08:06:44.382Z,19.70
2022-08-29T08:07:44.320Z,19.65
2022-08-29T08:08:44.294Z,19.61
2022-08-29T08:09:44.203Z,19.71
2022-08-29T08:10:46.022Z,19.64
2022-08-29T08:11:45.131Z,19.64
2022-08-29T08:12:44.011Z,19.47
2022-08-29T08:13:43.950Z,19.40
2022-08-29T08:14:43.923Z,19.17
2022-08-29T08:15:43.855Z,19.23
2022-08-29T08:16:44.500Z,19.15
2022-08-29T08:17:44.281Z,19.07
2022-08-29T08:18:43.644Z,18.94
2022-08-29T08:19:43.643Z,18.96
2022-08-29T08:20:43.551Z,18.91
2022-08-29T08:21:49.467Z,18.96
2022-08-29T08:22:43.461Z,18.96
2022-08-29T08:23:43.378Z,18.97
2022-08-29T08:24:43.304Z,19.01
2022-08-29T08:25:43.277Z,18.90
2022-08-29T08:26:43.180Z,18.93
2022-08-29T08:27:43.532Z,18.99
2022-08-29T08:28:43.092Z,18.97
2022-08-29T08:29:43.037Z,19.07
2022-08-29T08:30:42.949Z,19.07
2022-08-29T08:31:42.907Z,19.10
2022-08-29T08:32:46.222Z,19.07
2022-08-29T08:33:42.747Z,19.06
2022-08-29T08:34:43.004Z,19.13
2022-08-29T08:35:42.810Z,19.23
2022-08-29T08:36:42.559Z,19.27
2022-08-29T08:37:42.534Z,19.20
2022-08-29T08:38:42.437Z,19.21
2022-08-29T08:39:42.376Z,19.10
2022-08-29T08:40:42.361Z,19.16
2022-08-29T08:41:42.257Z,19.21
2022-08-29T08:42:42.191Z,19.21
2022-08-29T08:43:42.163Z,19.23
2022-08-29T08:44:42.069Z,19.31
2022-08-29T08:45:42.164Z,19.42
2022-08-29T08:46:41.981Z,19.55
2022-08-29T08:47:41.913Z,19.65
2022-08-29T08:48:41.885Z,19.85
2022-08-29T08:49:41.792Z,19.98
2022-08-29T08:50:41.731Z,20.04
2022-08-29T08:51:41.702Z,20.01
2022-08-29T08:52:41.603Z,19.95
2022-08-29T08:53:41.610Z,19.86
2022-08-29T08:54:41.555Z,19.95
2022-08-29T08:55:41.425Z,20.00
2022-08-29T08:56:41.359Z,20.16
2022-08-29T08:57:41.362Z,20.31
2022-08-29T08:58:41.278Z,20.40
2022-08-29T08:59:41.170Z,20.27
2022-08-29T09:00:41.144Z,20.35
2022-08-29T09:01:41.130Z,20.51
2022-08-29T09:02:41.002Z,20.63
2022-08-29T09:03:40.959Z,20.73
2022-08-29T09:04:40.939Z,20.79
2022-08-29T09:05:40.866Z,20.71
2022-08-29T09:06:40.771Z,20.82
2022-08-29T09:07:40.710Z,20.72
2022-08-29T09:08:40.682Z,20.71
2022-08-29T09:09:40.586Z,20.82
2022-08-29T09:10:40.595Z,20.85
2022-08-29T09:11:40.426Z,21.03
2022-08-29T09:12:40.400Z,21.03
2022-08-29T09:13:40.336Z,21.26
2022-08-29T09:14:40.350Z,21.31
2022-08-29T09:15:40.219Z,21.34
2022-08-29T09:16:40.184Z,21.45
2022-08-29T09:17:40.158Z,21.53
2022-08-29T09:18:40.065Z,21.66
2022-08-29T09:19:40.068Z,21.70
2022-08-29T09:20:39.980Z,21.58
2022-08-29T09:21:41.405Z,21.70
2022-08-29T09:22:39.855Z,21.74
2022-08-29T09:23:39.763Z,21.70
2022-08-29T09:24:39.696Z,21.70
2022-08-29T09:25:39.686Z,21.71
2022-08-29T09:26:39.583Z,21.82
2022-08-29T09:27:39.506Z,21.81
2022-08-29T09:28:39.497Z,21.90
2022-08-29T09:29:39.396Z,21.83
2022-08-29T09:30:39.497Z,21.86
2022-08-29T09:31:39.382Z,21.91
2022-08-29T09:32:39.417Z,21.91
2022-08-29T09:33:39.238Z,21.79
2022-08-29T09:35:09.932Z,21.77
2022-08-29T09:35:39.057Z,21.71
2022-08-29T09:36:39.036Z,21.55
2022-08-29T09:37:38.943Z,21.21
2022-08-29T09:38:38.943Z,21.27
2022-08-29T09:39:38.847Z,21.42
2022-08-29T09:40:38.796Z,21.42
2022-08-29T09:41:38.675Z,21.56
2022-08-29T09:42:38.648Z,21.74
2022-08-29T09:43:38.583Z,21.68
2022-08-29T09:44:38.562Z,21.64
2022-08-29T09:45:38.502Z,21.81
2022-08-29T09:46:39.424Z,21.91
2022-08-29T09:47:38.303Z,21.85
2022-08-29T09:48:38.277Z,21.82
2022-08-29T09:49:38.213Z,21.73
2022-08-29T09:50:38.204Z,21.67
2022-08-29T09:51:38.126Z,21.66
2022-08-29T09:52:38.028Z,21.67
2022-08-29T09:53:38.005Z,21.61
2022-08-29T09:54:37.937Z,21.67
2022-08-29T09:55:37.887Z,21.73
2022-08-29T09:56:37.851Z,21.85
2022-08-29T09:57:37.822Z,21.96
2022-08-29T09:58:40.144Z,22.01
2022-08-29T09:59:37.629Z,22.19
2022-08-29T10:00:37.641Z,22.19
2022-08-29T10:01:37.567Z,22.31
2022-08-29T10:02:37.528Z,22.24
2022-08-29T10:03:38.121Z,22.21
2022-08-29T10:04:37.357Z,22.19
2022-08-29T10:05:37.300Z,22.14
2022-08-29T10:06:42.710Z,21.85
2022-08-29T10:07:37.540Z,22.01
2022-08-29T10:08:37.113Z,22.06
2022-08-29T10:09:37.099Z,21.98
2022-08-29T10:10:36.985Z,21.96
2022-08-29T10:11:36.925Z,22.06
2022-08-29T10:12:36.895Z,22.08
2022-08-29T10:13:36.800Z,21.98
2022-08-29T10:14:36.741Z,22.06
2022-08-29T10:15:52.026Z,22.20
2022-08-29T10:16:36.683Z,22.05
2022-08-29T10:17:36.755Z,21.90
2022-08-29T10:18:36.524Z,21.93
2022-08-29T10:19:37.692Z,21.93
2022-08-29T10:20:36.450Z,22.02
2022-08-29T10:21:36.361Z,22.01
2022-08-29T10:22:36.276Z,22.01
2022-08-29T10:23:36.184Z,22.02
2022-08-29T10:24:36.155Z,22.04
2022-08-29T10:25:36.089Z,22.08
2022-08-29T10:26:36.095Z,22.04
2022-08-29T10:27:35.975Z,21.90
2022-08-29T10:28:35.886Z,21.89
2022-08-29T10:29:35.910Z,21.86
2022-08-29T10:30:35.913Z,21.83
2022-08-29T10:31:36.024Z,21.73
2022-08-29T10:32:35.727Z,21.71
2022-08-29T10:33:35.655Z,21.79
2022-08-29T10:34:35.632Z,21.73
2022-08-29T10:35:35.543Z,21.79
2022-08-29T10:36:35.444Z,21.85
2022-08-29T10:37:35.389Z,21.91
2022-08-29T10:38:35.455Z,22.02
2022-08-29T10:39:35.981Z,22.17
2022-08-29T10:40:35.610Z,22.30
2022-08-29T10:41:35.171Z,22.38
2022-08-29T10:42:35.145Z,22.31
2022-08-29T10:43:35.047Z,22.27
2022-08-29T10:44:34.980Z,22.29
2022-08-29T10:45:34.979Z,22.35
2022-08-29T10:46:34.891Z,22.44
2022-08-29T10:47:34.765Z,22.52
2022-08-29T10:48:34.805Z,22.46
2022-08-29T10:49:34.706Z,22.44
2022-08-29T10:50:44.102Z,22.51
2022-08-29T10:51:34.584Z,22.54
2022-08-29T10:52:34.524Z,22.63
2022-08-29T10:53:34.496Z,22.75
2022-08-29T10:54:34.407Z,22.86
2022-08-29T10:55:36.896Z,23.01
2022-08-29T10:56:34.238Z,23.12
2022-08-29T10:57:34.216Z,23.29
2022-08-29T10:58:34.458Z,23.62
2022-08-29T10:59:34.123Z,23.69
2022-08-29T11:00:34.057Z,23.78
2022-08-29T11:01:34.139Z,23.71
2022-08-29T11:02:33.954Z,23.69
2022-08-29T11:03:34.134Z,23.53
2022-08-29T11:04:33.852Z,23.59
2022-08-29T11:05:33.762Z,23.60
2022-08-29T11:06:33.890Z,23.41
2022-08-29T11:07:33.846Z,23.35
2022-08-29T11:08:33.952Z,23.38
2022-08-29T11:09:34.043Z,23.53
2022-08-29T11:10:34.374Z,23.59
2022-08-29T11:11:33.821Z,23.67
2022-08-29T11:12:33.829Z,23.81
2022-08-29T11:13:34.369Z,23.52
2022-08-29T11:14:33.432Z,23.63
2022-08-29T11:15:33.317Z,23.90
2022-08-29T11:16:33.269Z,24.42
2022-08-29T11:17:33.549Z,24.99
2022-08-29T11:18:34.243Z,25.48
2022-08-29T11:19:32.955Z,25.64
2022-08-29T11:20:32.931Z,25.81
2022-08-29T11:21:32.828Z,25.83
2022-08-29T11:22:32.763Z,25.74
2022-08-29T11:23:32.735Z,25.64
2022-08-29T11:24:34.769Z,25.57
2022-08-29T11:25:32.647Z,25.31
2022-08-29T11:26:32.553Z,25.29
2022-08-29T11:27:32.659Z,25.46
2022-08-29T11:28:32.559Z,25.38
2022-08-29T11:29:32.365Z,25.39
2022-08-29T11:30:35.227Z,25.24
2022-08-29T11:31:32.320Z,25.38
2022-08-29T11:32:32.182Z,25.29
2022-08-29T11:33:32.186Z,25.31
2022-08-29T11:34:32.091Z,25.41
2022-08-29T11:35:32.031Z,25.41
2022-08-29T11:36:31.935Z,25.45
2022-08-29T11:37:31.905Z,25.41
2022-08-29T11:38:31.841Z,25.30
2022-08-29T11:39:31.817Z,25.04
2022-08-29T11:40:48.031Z,24.94
2022-08-29T11:41:31.723Z,24.93
2022-08-29T11:43:31.566Z,24.75
2022-08-29T11:44:31.580Z,24.79
2022-08-29T11:45:36.587Z,24.66
2022-08-29T11:46:31.417Z,24.51
2022-08-29T11:47:31.353Z,24.49
2022-08-29T11:48:31.294Z,24.33
2022-08-29T11:49:31.270Z,24.34
2022-08-29T11:50:31.174Z,24.29
2022-08-29T11:51:31.107Z,24.18
2022-08-29T11:52:31.080Z,24.14
2022-08-29T11:53:31.017Z,24.05
2022-08-29T11:54:30.921Z,23.99
2022-08-29T11:55:31.001Z,24.08
2022-08-29T11:56:30.831Z,24.05
2022-08-29T11:57:30.838Z,24.05
2022-08-29T11:58:30.714Z,23.97
2022-08-29T11:59:30.646Z,24.14
2022-08-29T12:00:30.629Z,23.87
2022-08-29T12:01:30.624Z,23.74
2022-08-29T12:02:30.460Z,23.71
2022-08-29T12:03:30.616Z,23.67
2022-08-29T12:04:30.438Z,23.60
2022-08-29T12:05:30.277Z,23.67
2022-08-29T12:06:30.248Z,23.67
2022-08-29T12:07:30.189Z,23.64
2022-08-29T12:08:36.901Z,23.78
2022-08-29T12:09:30.064Z,23.77
2022-08-29T12:10:30.000Z,23.77
2022-08-29T12:11:30.006Z,23.72
2022-08-29T12:12:29.982Z,23.75
2022-08-29T12:13:29.816Z,23.75
2022-08-29T12:14:32.227Z,23.78
2022-08-29T12:15:29.730Z,23.72
2022-08-29T12:16:29.782Z,23.84
2022-08-29T12:17:51.295Z,23.97
2022-08-29T12:18:32.370Z,23.93
2022-08-29T12:19:29.514Z,23.94
2022-08-29T12:20:29.527Z,23.84
2022-08-29T12:21:29.426Z,23.97
2022-08-29T12:22:29.361Z,24.08
2022-08-29T12:23:29.333Z,24.15
2022-08-29T12:24:29.241Z,24.27
2022-08-29T12:25:29.144Z,24.33
2022-08-29T12:26:29.086Z,24.34
2022-08-29T12:27:29.052Z,24.49
2022-08-29T12:28:28.959Z,24.44
2022-08-29T12:29:28.990Z,24.53
2022-08-29T12:30:28.867Z,24.55
2022-08-29T12:31:28.878Z,24.77
2022-08-29T12:32:32.018Z,24.80
2022-08-29T12:33:28.685Z,24.89
2022-08-29T12:34:28.617Z,24.84
2022-08-29T12:35:28.613Z,24.92
2022-08-29T12:36:28.496Z,25.05
2022-08-29T12:37:28.433Z,24.98
2022-08-29T12:38:28.411Z,25.26
2022-08-29T12:39:28.343Z,25.41
2022-08-29T12:40:28.354Z,25.48
2022-08-29T12:41:28.238Z,25.74
2022-08-29T12:42:28.157Z,25.69
2022-08-29T12:43:28.134Z,25.67
2022-08-29T12:44:28.042Z,25.60
2022-08-29T12:45:28.044Z,25.60
2022-08-29T12:46:28.055Z,25.53
2022-08-29T12:47:27.887Z,25.57
2022-08-29T12:48:27.786Z,25.63
2022-08-29T12:49:27.760Z,25.66
2022-08-29T12:50:27.700Z,25.82
2022-08-29T12:51:27.672Z,25.86
2022-08-29T12:52:27.607Z,25.71